createdAt,value
2022-08-25T00:00:03.465Z,63.75
2022-08-25T00:01:03.563Z,64.36
2022-08-25T00:02:03.155Z,64.45
2022-08-25T00:03:03.286Z,63.85
2022-08-25T00:04:02.583Z,63.45
2022-08-25T00:05:03.145Z,63.35
2022-08-25T00:06:03.037Z,64.06
2022-08-25T00:07:03.525Z,64.06
2022-08-25T00:08:03.064Z,65.36
2022-08-25T00:09:03.168Z,66.16
2022-08-25T00:10:03.549Z,65.89
2022-08-25T00:11:03.803Z,65.86
2022-08-25T00:12:02.619Z,65.89
2022-08-25T00:13:02.742Z,65.05
2022-08-25T00:14:02.726Z,64.18
2022-08-25T00:15:02.720Z,64.28
2022-08-25T00:16:03.058Z,64.36
2022-08-25T00:17:02.793Z,64.69
2022-08-25T00:18:02.855Z,64.98
2022-08-25T00:19:02.861Z,65.09
2022-08-25T00:20:02.758Z,64.48
2022-08-25T00:21:02.852Z,63.78
2022-08-25T00:22:03.434Z,64.18
2022-08-25T00:23:03.669Z,64.28
2022-08-25T00:24:03.582Z,65.09
2022-08-25T00:25:03.465Z,64.48
2022-08-25T00:26:03.575Z,64.48
2022-08-25T00:27:02.796Z,65.89
2022-08-25T00:28:06.508Z,64.48
2022-08-25T00:29:02.882Z,64.18
2022-08-25T00:30:02.676Z,63.58
2022-08-25T00:31:02.626Z,64.18
2022-08-25T00:32:03.290Z,63.89
2022-08-25T00:33:03.199Z,63.58
2022-08-25T00:34:03.719Z,64.78
2022-08-25T00:35:03.449Z,64.18
2022-08-25T00:36:03.133Z,64.28
2022-08-25T00:37:02.807Z,64.62
2022-08-25T00:38:02.700Z,64.62
2022-08-25T00:39:02.679Z,64.22
2022-08-25T00:40:02.599Z,65.12
2022-08-25T00:41:02.690Z,65.12
2022-08-25T00:42:03.052Z,64.62
2022-08-25T00:43:03.671Z,66.92
2022-08-25T00:44:03.322Z,66.02
2022-08-25T00:45:03.568Z,66.02
2022-08-25T00:46:03.470Z,67.22
2022-08-25T00:47:03.415Z,66.02
2022-08-25T00:48:03.593Z,65.82
2022-08-25T00:49:03.396Z,64.92
2022-08-25T00:50:03.226Z,67.96
2022-08-25T00:51:03.401Z,66.72
2022-08-25T00:52:02.988Z,66.12
2022-08-25T00:53:03.240Z,65.82
2022-08-25T00:54:02.851Z,65.45
2022-08-25T00:55:08.287Z,65.65
2022-08-25T00:56:02.863Z,65.65
2022-08-25T00:57:03.335Z,65.75
2022-08-25T00:58:03.596Z,68.26
2022-08-25T00:59:03.367Z,68.15
2022-08-25T01:00:03.459Z,66.45
2022-08-25T01:01:03.549Z,65.65
2022-08-25T01:02:03.200Z,67.85
2022-08-25T01:03:03.481Z,67.25
2022-08-25T01:04:03.285Z,67.35
2022-08-25T01:05:03.230Z,66.35
2022-08-25T01:06:03.139Z,66.85
2022-08-25T01:07:02.807Z,66.35
2022-08-25T01:08:02.603Z,66.55
2022-08-25T01:09:02.863Z,66.55
2022-08-25T01:10:02.698Z,68.19
2022-08-25T01:11:02.577Z,68.08
2022-08-25T01:12:03.051Z,67.69
2022-08-25T01:13:03.340Z,68.49
2022-08-25T01:14:03.093Z,68.99
2022-08-25T01:15:02.734Z,66.99
2022-08-25T01:16:03.172Z,66.18
2022-08-25T01:17:02.861Z,67.38
2022-08-25T01:18:02.767Z,68.19
2022-08-25T01:19:02.571Z,67.08
2022-08-25T01:20:02.500Z,67.58
2022-08-25T01:21:03.061Z,67.08
2022-08-25T01:22:03.220Z,66.68
2022-08-25T01:23:03.062Z,67.08
2022-08-25T01:24:03.041Z,66.88
2022-08-25T01:25:02.953Z,67.18
2022-08-25T01:26:03.558Z,66.48
2022-08-25T01:27:02.971Z,67.52
2022-08-25T01:28:03.158Z,67.02
2022-08-25T01:29:02.910Z,67.29
2022-08-25T01:30:02.845Z,67.52
2022-08-25T01:31:02.532Z,69.42
2022-08-25T01:32:03.182Z,68.22
2022-08-25T01:33:02.946Z,69.62
2022-08-25T01:34:02.894Z,68.62
2022-08-25T01:35:02.827Z,67.72
2022-08-25T01:36:03.272Z,69.42
2022-08-25T01:37:03.466Z,70.03
2022-08-25T01:38:03.421Z,70.03
2022-08-25T01:39:03.573Z,68.92
2022-08-25T01:40:03.586Z,68.82
2022-08-25T01:41:03.264Z,68.42
2022-08-25T01:42:03.869Z,67.92
2022-08-25T01:43:03.750Z,68.42
2022-08-25T01:44:03.661Z,69.42
2022-08-25T01:45:03.524Z,69.12
2022-08-25T01:46:03.438Z,68.52
2022-08-25T01:47:03.122Z,68.02
2022-08-25T01:48:03.108Z,70.26
2022-08-25T01:49:06.708Z,70.56
2022-08-25T01:50:02.635Z,69.06
2022-08-25T01:51:02.580Z,70.26
2022-08-25T01:52:03.262Z,69.35
2022-08-25T01:53:02.978Z,69.35
2022-08-25T01:54:02.921Z,70.16
2022-08-25T01:55:02.814Z,70.06
2022-08-25T01:56:03.810Z,68.95
2022-08-25T01:57:03.347Z,69.56
2022-08-25T01:58:03.332Z,68.45
2022-08-25T01:59:03.331Z,69.66
2022-08-25T02:00:03.043Z,70.36
2022-08-25T02:01:03.038Z,69.46
2022-08-25T02:02:04.870Z,68.95
2022-08-25T02:03:02.659Z,70.86
2022-08-25T02:04:02.601Z,71.06
2022-08-25T02:05:02.514Z,71.09
2022-08-25T02:06:04.208Z,69.79
2022-08-25T02:07:02.691Z,69.09
2022-08-25T02:08:03.359Z,68.68
2022-08-25T02:09:03.167Z,69.79
2022-08-25T02:10:03.460Z,69.39
2022-08-25T02:11:02.704Z,70.89
2022-08-25T02:12:02.408Z,70.50
2022-08-25T02:13:02.681Z,70.70
2022-08-25T02:14:02.542Z,69.99
2022-08-25T02:15:02.481Z,69.69
2022-08-25T02:16:02.911Z,70.59
2022-08-25T02:17:02.922Z,69.69
2022-08-25T02:18:02.915Z,69.69
2022-08-25T02:19:03.361Z,69.49
2022-08-25T02:20:03.472Z,69.79
2022-08-25T02:21:03.269Z,71.00
2022-08-25T02:22:02.275Z,69.59
2022-08-25T02:23:02.205Z,70.19
2022-08-25T02:24:02.844Z,69.39
2022-08-25T02:25:02.879Z,69.99
2022-08-25T02:26:02.300Z,69.52
2022-08-25T02:27:02.917Z,69.99
2022-08-25T02:28:02.860Z,70.12
2022-08-25T02:29:03.502Z,70.93
2022-08-25T02:30:03.051Z,70.83
2022-08-25T02:31:03.053Z,70.32
2022-08-25T02:32:02.075Z,70.43
2022-08-25T02:33:02.056Z,70.32
2022-08-25T02:34:02.354Z,70.32
2022-08-25T02:35:02.153Z,69.92
2022-08-25T02:36:02.437Z,70.63
2022-08-25T02:37:02.361Z,70.32
2022-08-25T02:38:03.040Z,70.32
2022-08-25T02:39:02.516Z,70.12
2022-08-25T02:40:02.561Z,70.73
2022-08-25T02:41:02.548Z,70.23
2022-08-25T02:42:03.467Z,70.12
2022-08-25T02:43:03.452Z,70.43
2022-08-25T02:44:03.338Z,70.83
2022-08-25T02:45:03.262Z,70.43
2022-08-25T02:46:03.659Z,70.23
2022-08-25T02:47:02.433Z,69.82
2022-08-25T02:48:02.283Z,69.62
2022-08-25T02:49:02.238Z,70.23
2022-08-25T02:50:02.651Z,70.53
2022-08-25T02:51:02.580Z,70.56
2022-08-25T02:52:02.482Z,70.26
2022-08-25T02:53:02.318Z,70.66
2022-08-25T02:54:02.919Z,71.16
2022-08-25T02:55:02.613Z,71.36
2022-08-25T02:56:02.514Z,71.16
2022-08-25T02:57:02.595Z,71.56
2022-08-25T02:58:02.716Z,72.17
2022-08-25T02:59:02.825Z,71.67
2022-08-25T03:00:02.922Z,71.06
2022-08-25T03:01:03.063Z,71.77
2022-08-25T03:02:02.799Z,71.77
2022-08-25T03:03:02.751Z,71.77
2022-08-25T03:04:02.884Z,71.26
2022-08-25T03:05:02.918Z,71.97
2022-08-25T03:06:02.940Z,71.87
2022-08-25T03:07:01.974Z,71.56
2022-08-25T03:08:01.927Z,71.47
2022-08-25T03:09:01.942Z,71.47
2022-08-25T03:10:01.881Z,71.90
2022-08-25T03:11:01.811Z,71.80
2022-08-25T03:12:02.400Z,71.70
2022-08-25T03:13:02.391Z,72.71
2022-08-25T03:14:02.190Z,72.00
2022-08-25T03:15:02.838Z,71.60
2022-08-25T03:16:02.926Z,71.90
2022-08-25T03:17:02.879Z,72.10
2022-08-25T03:18:03.144Z,72.20
2022-08-25T03:19:02.564Z,71.40
2022-08-25T03:20:02.649Z,71.90
2022-08-25T03:21:02.609Z,72.20
2022-08-25T03:22:02.256Z,72.50
2022-08-25T03:23:02.582Z,72.50
2022-08-25T03:24:02.311Z,72.30
2022-08-25T03:25:02.230Z,72.20
2022-08-25T03:26:02.437Z,72.91
2022-08-25T03:27:02.392Z,72.30
2022-08-25T03:28:02.436Z,73.31
2022-08-25T03:29:02.458Z,72.91
2022-08-25T03:30:02.098Z,73.81
2022-08-25T03:31:02.636Z,73.81
2022-08-25T03:32:02.509Z,74.01
2022-08-25T03:33:02.312Z,73.51
2022-08-25T03:34:02.809Z,73.35
2022-08-25T03:35:02.498Z,74.25
2022-08-25T03:36:02.733Z,73.95
2022-08-25T03:37:02.313Z,74.55
2022-08-25T03:38:02.451Z,74.55
2022-08-25T03:39:02.504Z,73.00
2022-08-25T03:40:02.507Z,72.10
2022-08-25T03:41:02.296Z,71.50
2022-08-25T03:42:02.411Z,72.20
2022-08-25T03:43:02.322Z,71.70
2022-08-25T03:44:02.162Z,71.20
2022-08-25T03:45:02.117Z,71.20
2022-08-25T03:46:02.754Z,71.20
2022-08-25T03:47:02.457Z,71.60
2022-08-25T03:48:02.374Z,71.00
2022-08-25T03:49:02.770Z,73.14
2022-08-25T03:50:02.514Z,74.05
2022-08-25T03:51:02.396Z,71.70
2022-08-25T03:52:03.052Z,73.24
2022-08-25T03:53:02.976Z,73.00
2022-08-25T03:54:02.978Z,74.35
2022-08-25T03:55:02.949Z,72.00
2022-08-25T03:56:03.144Z,71.30
2022-08-25T03:57:02.527Z,70.93
2022-08-25T03:58:02.644Z,71.03
2022-08-25T03:59:02.544Z,72.34
2022-08-25T04:00:02.598Z,74.15
2022-08-25T04:01:02.767Z,72.64
2022-08-25T04:02:03.177Z,74.05
2022-08-25T04:03:03.052Z,75.05
2022-08-25T04:04:02.933Z,74.85
2022-08-25T04:05:02.796Z,73.24
2022-08-25T04:06:02.846Z,72.84
2022-08-25T04:07:03.527Z,72.94
2022-08-25T04:08:03.672Z,71.83
2022-08-25T04:09:03.561Z,72.54
2022-08-25T04:10:03.543Z,72.34
2022-08-25T04:11:03.451Z,71.73
2022-08-25T04:12:03.181Z,73.04
2022-08-25T04:13:03.092Z,73.04
2022-08-25T04:14:03.114Z,72.77
2022-08-25T04:15:03.134Z,73.55
2022-08-25T04:16:03.079Z,73.38
2022-08-25T04:17:03.833Z,73.88
2022-08-25T04:18:03.933Z,73.98
2022-08-25T04:19:03.828Z,73.78
2022-08-25T04:20:03.326Z,74.49
2022-08-25T04:21:03.360Z,74.38
2022-08-25T04:22:03.233Z,74.89
2022-08-25T04:23:03.307Z,74.38
2022-08-25T04:24:02.996Z,74.08
2022-08-25T04:25:03.268Z,74.29
2022-08-25T04:26:03.049Z,75.23
2022-08-25T04:27:03.470Z,74.52
2022-08-25T04:28:03.119Z,74.32
2022-08-25T04:29:03.046Z,73.68
2022-08-25T04:30:03.232Z,74.42
2022-08-25T04:31:03.305Z,74.22
2022-08-25T04:32:03.154Z,74.02
2022-08-25T04:33:02.500Z,73.72
2022-08-25T04:34:02.526Z,73.52
2022-08-25T04:35:02.530Z,74.62
2022-08-25T04:36:02.615Z,74.73
2022-08-25T04:37:03.358Z,74.73
2022-08-25T04:38:03.161Z,74.93
2022-08-25T04:39:02.722Z,74.73
2022-08-25T04:40:02.845Z,74.62
2022-08-25T04:41:02.959Z,76.03
2022-08-25T04:42:03.468Z,75.53
2022-08-25T04:43:03.520Z,75.13
2022-08-25T04:44:03.199Z,74.62
2022-08-25T04:45:03.211Z,74.93
2022-08-25T04:46:03.717Z,74.93
2022-08-25T04:47:03.292Z,75.53
2022-08-25T04:48:03.064Z,75.36
2022-08-25T04:49:03.178Z,74.73
2022-08-25T04:50:03.276Z,75.13
2022-08-25T04:51:02.684Z,74.93
2022-08-25T04:52:03.385Z,75.13
2022-08-25T04:53:03.208Z,76.47
2022-08-25T04:54:03.285Z,76.07
2022-08-25T04:55:03.296Z,75.63
2022-08-25T04:56:03.982Z,75.46
2022-08-25T04:57:03.520Z,75.67
2022-08-25T04:58:03.011Z,75.87
2022-08-25T04:59:03.135Z,77.28
2022-08-25T05:00:03.223Z,75.67
2022-08-25T05:01:02.920Z,75.43
2022-08-25T05:02:02.850Z,75.36
2022-08-25T05:03:02.167Z,76.17
2022-08-25T05:04:02.125Z,76.67
2022-08-25T05:05:02.149Z,75.76
2022-08-25T05:06:02.120Z,77.68
2022-08-25T05:07:02.212Z,76.03
2022-08-25T05:08:02.849Z,75.83
2022-08-25T05:09:02.782Z,75.53
2022-08-25T05:10:02.617Z,77.34
2022-08-25T05:11:02.268Z,77.24
2022-08-25T05:12:02.898Z,77.34
2022-08-25T05:13:02.431Z,76.94
2022-08-25T05:14:02.389Z,77.64
2022-08-25T05:15:02.496Z,77.84
2022-08-25T05:16:02.992Z,78.25
2022-08-25T05:17:02.315Z,76.94
2022-08-25T05:18:02.185Z,77.84
2022-08-25T05:19:01.949Z,78.65
2022-08-25T05:20:01.844Z,76.84
2022-08-25T05:21:02.236Z,76.64
2022-08-25T05:22:02.352Z,75.93
2022-08-25T05:23:02.544Z,75.33
2022-08-25T05:24:02.758Z,75.63
2022-08-25T05:25:02.908Z,77.84
2022-08-25T05:26:02.710Z,78.75
2022-08-25T05:27:02.470Z,77.64
2022-08-25T05:28:02.843Z,76.94
2022-08-25T05:29:02.361Z,75.90
2022-08-25T05:30:02.909Z,75.59
2022-08-25T05:31:02.969Z,75.49
2022-08-25T05:32:01.809Z,75.49
2022-08-25T05:33:01.894Z,75.29
2022-08-25T05:34:02.040Z,75.19
2022-08-25T05:35:01.722Z,75.49
2022-08-25T05:36:01.859Z,76.20
2022-08-25T05:37:02.511Z,76.60
2022-08-25T05:38:02.591Z,76.30
2022-08-25T05:39:02.733Z,76.30
2022-08-25T05:40:02.911Z,75.99
2022-08-25T05:41:02.743Z,76.20
2022-08-25T05:42:02.244Z,76.60
2022-08-25T05:43:01.903Z,75.70
2022-08-25T05:44:01.622Z,75.39
2022-08-25T05:45:02.294Z,74.79
2022-08-25T05:46:02.222Z,75.59
2022-08-25T05:47:02.173Z,75.70
2022-08-25T05:48:02.474Z,74.99
2022-08-25T05:49:02.369Z,74.65
2022-08-25T05:50:02.076Z,74.75
2022-08-25T05:51:02.553Z,75.15
2022-08-25T05:52:02.454Z,75.26
2022-08-25T05:53:02.737Z,74.95
2022-08-25T05:54:02.661Z,75.15
2022-08-25T05:55:02.753Z,75.32
2022-08-25T05:56:02.321Z,75.52
2022-08-25T05:57:01.896Z,75.42
2022-08-25T05:58:02.086Z,75.32
2022-08-25T05:59:06.099Z,75.68
2022-08-25T06:00:02.515Z,75.89
2022-08-25T06:01:02.578Z,76.19
2022-08-25T06:02:03.464Z,76.49
2022-08-25T06:03:03.553Z,76.59
2022-08-25T06:04:03.644Z,76.89
2022-08-25T06:05:04.092Z,76.35
2022-08-25T06:06:03.217Z,77.06
2022-08-25T06:07:02.967Z,76.25
2022-08-25T06:08:03.098Z,76.82
2022-08-25T06:09:03.102Z,77.32
2022-08-25T06:10:03.342Z,77.22
2022-08-25T06:11:03.232Z,76.72
2022-08-25T06:12:03.364Z,76.98
2022-08-25T06:13:03.409Z,76.78
2022-08-25T06:14:03.439Z,76.95
2022-08-25T06:15:03.502Z,76.85
2022-08-25T06:16:03.669Z,76.61
2022-08-25T06:17:03.785Z,77.31
2022-08-25T06:18:03.551Z,77.48
2022-08-25T06:19:03.640Z,77.58
2022-08-25T06:20:03.835Z,76.74
2022-08-25T06:21:03.822Z,76.54
2022-08-25T06:22:03.302Z,76.30
2022-08-25T06:23:03.366Z,76.50
2022-08-25T06:24:03.486Z,76.06
2022-08-25T06:25:03.132Z,76.37
2022-08-25T06:26:03.376Z,75.83
2022-08-25T06:27:02.890Z,75.13
2022-08-25T06:28:03.040Z,74.79
2022-08-25T06:29:02.654Z,74.39
2022-08-25T06:30:08.035Z,73.96
2022-08-25T06:31:03.034Z,73.32
2022-08-25T06:32:02.946Z,72.82
2022-08-25T06:33:03.342Z,72.59
2022-08-25T06:34:02.760Z,71.79
2022-08-25T06:35:02.781Z,71.75
2022-08-25T06:36:02.839Z,71.45
2022-08-25T06:37:03.680Z,71.36
2022-08-25T06:38:03.809Z,71.82
2022-08-25T06:39:03.460Z,71.92
2022-08-25T06:40:03.464Z,71.42
2022-08-25T06:41:03.507Z,71.39
2022-08-25T06:42:02.967Z,71.29
2022-08-25T06:43:03.476Z,70.75
2022-08-25T06:44:05.441Z,70.56
2022-08-25T06:45:03.395Z,70.95
2022-08-25T06:46:03.410Z,70.12
2022-08-25T06:47:03.622Z,69.73
2022-08-25T06:48:03.349Z,69.59
2022-08-25T06:49:03.422Z,69.39
2022-08-25T06:50:03.421Z,69.29
2022-08-25T06:51:03.471Z,69.46
2022-08-25T06:52:03.330Z,69.36
2022-08-25T06:53:03.513Z,69.26
2022-08-25T06:54:03.472Z,68.73
2022-08-25T06:55:03.333Z,68.73
2022-08-25T06:56:06.525Z,68.83
2022-08-25T06:57:03.890Z,69.03
2022-08-25T06:58:04.897Z,68.80
2022-08-25T06:59:03.486Z,68.10
2022-08-25T07:00:04.011Z,67.87
2022-08-25T07:01:04.126Z,68.57
2022-08-25T07:02:03.716Z,68.27
2022-08-25T07:03:02.880Z,68.04
2022-08-25T07:04:02.869Z,66.55
2022-08-25T07:05:03.148Z,66.25
2022-08-25T07:06:03.319Z,66.41
2022-08-25T07:07:03.231Z,66.61
2022-08-25T07:08:03.159Z,66.02
2022-08-25T07:09:02.820Z,65.69
2022-08-25T07:10:03.004Z,65.89
2022-08-25T07:11:03.172Z,65.99
2022-08-25T07:12:03.458Z,65.36
2022-08-25T07:13:03.065Z,65.56
2022-08-25T07:14:03.465Z,65.16
2022-08-25T07:15:19.454Z,63.84
2022-08-25T07:16:02.908Z,64.53
2022-08-25T07:17:02.939Z,64.93
2022-08-25T07:18:02.628Z,65.39
2022-08-25T07:19:02.701Z,65.20
2022-08-25T07:20:02.712Z,64.40
2022-08-25T07:21:02.945Z,65.09
2022-08-25T07:22:03.050Z,64.67
2022-08-25T07:23:02.818Z,62.88
2022-08-25T07:24:02.872Z,64.07
2022-08-25T07:25:02.919Z,63.35
2022-08-25T07:26:08.140Z,63.65
2022-08-25T07:27:03.095Z,64.84
2022-08-25T07:28:02.662Z,64.44
2022-08-25T07:29:03.058Z,63.42
2022-08-25T07:30:04.372Z,63.92
2022-08-25T07:31:03.179Z,63.29
2022-08-25T07:32:02.775Z,62.79
2022-08-25T07:33:06.758Z,62.90
2022-08-25T07:34:02.151Z,62.90
2022-08-25T07:35:02.682Z,62.27
2022-08-25T07:36:02.549Z,61.61
2022-08-25T07:37:03.308Z,62.50
2022-08-25T07:38:03.217Z,62.30
2022-08-25T07:39:03.112Z,62.57
2022-08-25T07:40:02.843Z,61.98
2022-08-25T07:41:02.882Z,62.07
2022-08-25T07:42:02.099Z,61.48
2022-08-25T07:43:02.504Z,62.17
2022-08-25T07:44:02.586Z,62.66
2022-08-25T07:45:02.687Z,62.44
2022-08-25T07:46:02.553Z,62.44
2022-08-25T07:47:02.791Z,63.53
2022-08-25T07:48:02.976Z,60.96
2022-08-25T07:49:03.108Z,60.96
2022-08-25T07:50:03.245Z,60.96
2022-08-25T07:51:05.526Z,61.03
2022-08-25T07:52:05.318Z,61.62
2022-08-25T07:53:02.662Z,60.43
2022-08-25T07:54:02.817Z,59.94
2022-08-25T07:55:02.959Z,60.14
2022-08-25T07:57:03.185Z,60.63
2022-08-25T07:58:03.495Z,61.42
2022-08-25T07:59:03.497Z,60.83
2022-08-25T08:00:03.631Z,59.91
2022-08-25T08:01:03.246Z,60.50
2022-08-25T08:02:02.347Z,61.19
2022-08-25T08:03:03.767Z,60.31
2022-08-25T08:04:03.662Z,60.08
2022-08-25T08:05:02.471Z,59.98
2022-08-25T08:06:02.569Z,59.78
2022-08-25T08:07:02.722Z,60.47
2022-08-25T08:08:02.822Z,60.77
2022-08-25T08:09:03.104Z,59.95
2022-08-25T08:10:29.661Z,59.46
2022-08-25T08:11:04.727Z,60.15
2022-08-25T08:12:02.080Z,58.67
2022-08-25T08:13:02.196Z,59.83
2022-08-25T08:14:02.511Z,59.63
2022-08-25T08:15:02.437Z,59.72
2022-08-25T08:16:02.562Z,59.23
2022-08-25T08:17:02.505Z,59.40
2022-08-25T08:18:03.102Z,59.20
2022-08-25T08:19:02.341Z,59.01
2022-08-25T08:20:03.010Z,58.02
2022-08-25T08:21:02.890Z,58.09
2022-08-25T08:22:02.841Z,58.09
2022-08-25T08:23:03.351Z,59.17
2022-08-25T08:24:05.073Z,58.78
2022-08-25T08:25:03.261Z,58.26
2022-08-25T08:26:03.379Z,57.57
2022-08-25T08:27:02.306Z,57.08
2022-08-25T08:28:02.575Z,56.10
2022-08-25T08:29:02.629Z,56.39
2022-08-25T08:30:02.747Z,57.18
2022-08-25T08:31:02.258Z,57.08
2022-08-25T08:32:03.005Z,56.79
2022-08-25T08:33:12.023Z,58.75
2022-08-25T08:34:03.486Z,56.27
2022-08-25T08:35:03.447Z,57.54
2022-08-25T08:36:05.166Z,57.35
2022-08-25T08:37:02.549Z,55.48
2022-08-25T08:38:02.970Z,56.95
2022-08-25T08:39:02.841Z,56.43
2022-08-25T08:40:03.326Z,55.85
2022-08-25T08:41:02.974Z,55.45
2022-08-25T08:42:11.177Z,55.58
2022-08-25T08:43:03.068Z,55.87
2022-08-25T08:44:03.301Z,55.48
2022-08-25T08:45:02.996Z,55.58
2022-08-25T08:46:02.757Z,56.16
2022-08-25T08:47:02.662Z,55.28
2022-08-25T08:48:03.049Z,56.04
2022-08-25T08:49:02.804Z,57.32
2022-08-25T08:50:03.853Z,56.63
2022-08-25T08:51:02.814Z,56.21
2022-08-25T08:52:02.965Z,57.20
2022-08-25T08:53:03.219Z,56.41
2022-08-25T08:54:03.338Z,56.58
2022-08-25T08:55:05.636Z,56.68
2022-08-25T08:56:02.920Z,54.71
2022-08-25T08:57:02.710Z,54.78
2022-08-25T08:58:02.895Z,56.45
2022-08-25T08:59:06.376Z,53.50
2022-08-25T09:00:02.708Z,53.80
2022-08-25T09:01:02.866Z,55.08
2022-08-25T09:02:02.162Z,53.80
2022-08-25T09:03:02.091Z,54.78
2022-08-25T09:04:02.232Z,54.49
2022-08-25T09:05:01.695Z,53.67
2022-08-25T09:06:01.932Z,52.40
2022-08-25T09:07:02.370Z,53.67
2022-08-25T09:08:02.358Z,52.20
2022-08-25T09:09:02.537Z,52.99
2022-08-25T09:10:02.320Z,52.80
2022-08-25T09:11:02.438Z,52.99
2022-08-25T09:12:02.121Z,54.56
2022-08-25T09:13:02.004Z,53.38
2022-08-25T09:14:02.175Z,53.19
2022-08-25T09:15:02.343Z,53.09
2022-08-25T09:16:02.278Z,53.85
2022-08-25T09:17:02.183Z,53.55
2022-08-25T09:18:02.097Z,52.47
2022-08-25T09:19:01.897Z,53.13
2022-08-25T09:20:01.988Z,51.76
2022-08-25T09:21:02.163Z,51.86
2022-08-25T09:22:02.267Z,52.55
2022-08-25T09:23:02.458Z,53.03
2022-08-25T09:24:02.136Z,51.66
2022-08-25T09:25:04.370Z,51.27
2022-08-25T09:26:02.128Z,51.96
2022-08-25T09:27:02.968Z,51.83
2022-08-25T09:28:02.700Z,50.46
2022-08-25T09:29:03.154Z,51.64
2022-08-25T09:30:05.237Z,50.78
2022-08-25T09:31:03.201Z,50.68
2022-08-25T09:32:02.428Z,50.59
2022-08-25T09:33:02.210Z,52.25
2022-08-25T09:34:02.407Z,52.23
2022-08-25T09:35:02.067Z,53.11
2022-08-25T09:36:04.613Z,51.22
2022-08-25T09:37:02.931Z,50.63
2022-08-25T09:38:02.930Z,50.93
2022-08-25T09:39:02.991Z,51.51
2022-08-25T09:40:02.922Z,51.22
2022-08-25T09:41:02.956Z,51.12
2022-08-25T09:42:02.620Z,50.04
2022-08-25T09:43:02.350Z,49.65
2022-08-25T09:44:02.306Z,49.75
2022-08-25T09:45:02.488Z,49.46
2022-08-25T09:46:02.298Z,50.15
2022-08-25T09:47:03.113Z,50.15
2022-08-25T09:48:02.931Z,49.75
2022-08-25T09:49:02.915Z,50.93
2022-08-25T09:50:05.248Z,50.93
2022-08-25T09:51:03.317Z,50.42
2022-08-25T09:52:02.672Z,50.71
2022-08-25T09:53:02.462Z,48.26
2022-08-25T09:54:02.212Z,48.75
2022-08-25T09:55:02.345Z,47.87
2022-08-25T09:56:02.770Z,49.07
2022-08-25T09:57:03.227Z,49.53
2022-08-25T09:58:03.220Z,48.16
2022-08-25T09:59:03.271Z,49.33
2022-08-25T10:00:03.061Z,49.73
2022-08-25T10:01:02.952Z,48.94
2022-08-25T10:02:02.197Z,49.63
2022-08-25T10:03:05.918Z,49.33
2022-08-25T10:04:02.354Z,50.10
2022-08-25T10:05:02.636Z,48.53
2022-08-25T10:06:02.831Z,48.63
2022-08-25T10:07:02.425Z,48.92
2022-08-25T10:08:02.756Z,48.82
2022-08-25T10:09:02.899Z,49.09
2022-08-25T10:10:03.071Z,51.93
2022-08-25T10:11:02.981Z,47.43
2022-08-25T10:12:02.860Z,48.31
2022-08-25T10:13:03.101Z,49.09
2022-08-25T10:14:03.336Z,47.43
2022-08-25T10:15:03.452Z,48.70
2022-08-25T10:16:03.429Z,48.50
2022-08-25T10:17:03.491Z,49.29
2022-08-25T10:18:02.663Z,49.55
2022-08-25T10:19:03.087Z,51.22
2022-08-25T10:20:02.740Z,49.16
2022-08-25T10:21:02.906Z,48.75
2022-08-25T10:22:03.199Z,47.67
2022-08-25T10:23:03.124Z,48.07
2022-08-25T10:24:02.419Z,47.67
2022-08-25T10:25:04.649Z,47.38
2022-08-25T10:26:03.621Z,47.58
2022-08-25T10:27:02.828Z,46.78
2022-08-25T10:28:02.754Z,47.56
2022-08-25T10:29:02.967Z,47.07
2022-08-25T10:30:03.120Z,47.27
2022-08-25T10:31:02.627Z,46.09
2022-08-25T10:32:02.854Z,46.97
2022-08-25T10:33:02.644Z,47.36
2022-08-25T10:34:02.522Z,47.27
2022-08-25T10:35:02.592Z,47.07
2022-08-25T10:36:02.760Z,48.02
2022-08-25T10:37:02.765Z,46.75
2022-08-25T10:38:02.671Z,47.92
2022-08-25T10:39:02.874Z,47.24
2022-08-25T10:40:03.117Z,47.44
2022-08-25T10:41:02.595Z,47.22
2022-08-25T10:42:02.898Z,47.12
2022-08-25T10:43:03.208Z,47.61
2022-08-25T10:44:03.198Z,47.02
2022-08-25T10:45:03.229Z,46.34
2022-08-25T10:46:03.133Z,46.53
2022-08-25T10:47:03.116Z,46.51
2022-08-25T10:48:03.790Z,45.83
2022-08-25T10:49:03.614Z,45.05
2022-08-25T10:50:03.464Z,47.19
2022-08-25T10:51:03.288Z,47.58
2022-08-25T10:52:03.454Z,46.31
2022-08-25T10:53:03.168Z,46.30
2022-08-25T10:54:02.787Z,44.24
2022-08-25T10:55:03.443Z,45.90
2022-08-25T10:56:03.339Z,46.49
2022-08-25T10:57:03.424Z,47.07
2022-08-25T10:58:03.121Z,47.56
2022-08-25T10:59:03.337Z,47.92
2022-08-25T11:00:03.426Z,46.17
2022-08-25T11:01:03.226Z,45.18
2022-08-25T11:02:03.521Z,42.57
2022-08-25T11:03:03.840Z,43.35
2022-08-25T11:04:03.301Z,42.47
2022-08-25T11:05:03.512Z,42.66
2022-08-25T11:06:03.251Z,44.23
2022-08-25T11:07:03.647Z,44.42
2022-08-25T11:08:03.255Z,42.86
2022-08-25T11:09:03.372Z,44.62
2022-08-25T11:10:03.559Z,44.90
2022-08-25T11:11:03.198Z,44.59
2022-08-25T11:12:03.325Z,43.13
2022-08-25T11:13:02.781Z,42.35
2022-08-25T11:14:06.381Z,41.69
2022-08-25T11:15:03.150Z,42.08
2022-08-25T11:16:18.895Z,41.40
2022-08-25T11:17:03.308Z,42.79
2022-08-25T11:18:03.715Z,43.57
2022-08-25T11:19:05.426Z,44.64
2022-08-25T11:20:03.357Z,44.52
2022-08-25T11:21:03.474Z,42.96
2022-08-25T11:22:03.581Z,42.66
2022-08-25T11:23:02.840Z,42.74
2022-08-25T11:24:02.967Z,40.70
2022-08-25T11:25:03.615Z,40.11
2022-08-25T11:26:03.395Z,38.77
2022-08-25T11:27:03.297Z,41.11
2022-08-25T11:28:04.150Z,42.76
2022-08-25T11:29:03.704Z,43.05
2022-08-25T11:30:05.928Z,42.25
2022-08-25T11:31:04.024Z,40.89
2022-08-25T11:32:04.094Z,41.75
2022-08-25T11:33:03.594Z,42.82
2022-08-25T11:34:03.197Z,42.53
2022-08-25T11:35:03.338Z,44.28
2022-08-25T11:36:03.474Z,42.80
2022-08-25T11:37:03.695Z,42.80
2022-08-25T11:38:02.898Z,40.15
2022-08-25T11:39:03.108Z,42.00
2022-08-25T11:40:03.233Z,40.64
2022-08-25T11:41:03.342Z,41.88
2022-08-25T11:42:03.230Z,40.52
2022-08-25T11:43:03.443Z,41.10
2022-08-25T11:44:03.618Z,41.88
2022-08-25T11:45:03.818Z,41.88
2022-08-25T11:46:03.930Z,42.05
2022-08-25T11:47:03.913Z,40.31
2022-08-25T11:48:03.211Z,40.99
2022-08-25T11:49:03.482Z,41.18
2022-08-25T11:50:03.068Z,38.85
2022-08-25T11:51:03.259Z,40.01
2022-08-25T11:52:03.539Z,40.21
2022-08-25T11:53:03.564Z,39.62
2022-08-25T11:54:03.819Z,39.82
2022-08-25T11:55:03.448Z,38.65
2022-08-25T11:56:03.556Z,39.04
2022-08-25T11:57:03.757Z,38.09
2022-08-25T11:58:04.101Z,37.92
2022-08-25T11:59:03.779Z,37.74
2022-08-25T12:00:03.736Z,39.69
2022-08-25T12:01:04.059Z,37.74
2022-08-25T12:02:04.193Z,36.96
2022-08-25T12:03:02.522Z,39.00
2022-08-25T12:04:02.396Z,40.44
2022-08-25T12:05:02.538Z,40.06
2022-08-25T12:06:02.583Z,41.32
2022-08-25T12:07:02.245Z,38.67
2022-08-25T12:08:02.987Z,38.19
2022-08-25T12:09:03.092Z,38.70
2022-08-25T12:10:03.155Z,38.89
2022-08-25T12:11:04.332Z,39.36
2022-08-25T12:12:02.777Z,39.94
2022-08-25T12:13:02.906Z,38.39
2022-08-25T12:14:03.089Z,38.65
2022-08-25T12:15:03.262Z,37.88
2022-08-25T12:16:03.276Z,38.95
2022-08-25T12:17:03.278Z,40.48
2022-08-25T12:18:06.821Z,38.15
2022-08-25T12:19:02.384Z,39.32
2022-08-25T12:20:02.532Z,38.04
2022-08-25T12:21:02.189Z,37.37
2022-08-25T12:22:03.514Z,37.66
2022-08-25T12:23:02.237Z,38.83
2022-08-25T12:24:02.594Z,38.34
2022-08-25T12:25:02.206Z,38.44
2022-08-25T12:26:02.598Z,37.96
2022-08-25T12:27:02.723Z,39.41
2022-08-25T12:28:02.596Z,37.57
2022-08-25T12:29:02.644Z,37.94
2022-08-25T12:30:02.326Z,37.55
2022-08-25T12:31:02.465Z,38.23
2022-08-25T12:32:04.836Z,38.91
2022-08-25T12:33:02.353Z,38.04
2022-08-25T12:34:02.792Z,36.50
2022-08-25T12:35:02.942Z,36.50
2022-08-25T12:36:02.865Z,38.83
2022-08-25T12:37:02.901Z,36.69
2022-08-25T12:38:03.604Z,38.62
2022-08-25T12:39:02.884Z,37.16
2022-08-25T12:40:03.011Z,37.92
2022-08-25T12:41:03.225Z,36.27
2022-08-25T12:42:03.438Z,36.46
2022-08-25T12:43:03.355Z,37.43
2022-08-25T12:44:03.590Z,35.96
2022-08-25T12:45:03.620Z,35.78
2022-08-25T12:46:03.796Z,36.27
2022-08-25T12:47:03.711Z,35.96
2022-08-25T12:48:02.560Z,37.61
2022-08-25T12:49:02.756Z,37.23
2022-08-25T12:50:02.817Z,37.23
2022-08-25T12:51:02.705Z,37.51
2022-08-25T12:52:02.884Z,36.24
2022-08-25T12:53:02.515Z,36.04